Time;durP1;ratioP1;P1;durP2;ratioP2;P2;SDS_P1;SDS_P2;PMS_P1;PMS_P2;Temp;Humidity;BMP_temperature;BMP_pressure;BME280_temperature;BME280_humidity;BME280_pressure;Samples;Min_cycle;Max_cycle;Signal;HPM_P1;HPM_P2
2022/06/26 00:00:12;;;;;;;;;;;;;;;;;;1048531;28;2709;-49
2022/06/26 00:01:03;;;;;;;;;;;;;;;;;;1048574;28;1719;-50
2022/06/26 00:01:33;;;;;;;;;;;;;;;;;;1048800;28;2542;-48
2022/06/26 00:02:03;;;;;;;;;;;;;;;;;;1045198;28;1713;-50
2022/06/26 00:02:34;;;;;;;;;;;;;;;;;;1047155;28;2565;-50
2022/06/26 00:03:04;;;;;;;;;;;;;;;;;;1049742;28;1696;-48
2022/06/26 00:03:34;;;;;;;;;;;;;;;;;;1044592;28;2931;-50
2022/06/26 00:04:05;;;;;;;;;;;;;;;;;;1044343;28;2724;-50
2022/06/26 00:04:35;;;;;;;;;;;;;;;;;;1045452;28;1604;-50
2022/06/26 00:05:07;;;;;;;;;;;;;;;;;;1043791;28;3942;-53
2022/06/26 00:05:37;;;;;;;;;;;;;;;;;;1048116;28;2299;-56
2022/06/26 00:06:07;;;;;;;;;;;;;;;;;;1049384;28;2781;-50
2022/06/26 00:06:38;;;;;;;;;;;;;;;;;;1050055;28;3462;-48
2022/06/26 00:07:08;;;;;;;;;;;;;;;;;;1049865;28;1919;-49
2022/06/26 00:07:39;;;;;;;;;;;;;;;;;;1049546;28;1591;-51
2022/06/26 00:08:10;;;;;;;;;;;;;;;;;;1043564;28;4108;-54
2022/06/26 00:08:40;;;;;;;;;;;;;;;;;;1045333;28;3256;-55
2022/06/26 00:09:10;;;;;;;;;;;;;;;;;;1049315;28;1979;-48
2022/06/26 00:09:41;;;;;;;;;;;;;;;;;;1048336;28;1953;-52
2022/06/26 00:10:24;;;;;;;;;;;;;;;;;;1047843;28;2751;-55
2022/06/26 00:11:01;;;;;;;;;;;;;;;;;;1048910;28;3639;-47
2022/06/26 00:11:31;;;;;;;;;;;;;;;;;;1049321;28;2584;-54
2022/06/26 00:12:02;;;;;;;;;;;;;;;;;;1047498;28;3248;-49
2022/06/26 00:12:33;;;;;;;;;;;;;;;;;;1049808;28;2144;-50
2022/06/26 00:13:03;;;;;;;;;;;;;;;;;;1044461;28;2285;-54
2022/06/26 00:13:33;;;;;;;;;;;;;;;;;;1041119;28;2003;-48
2022/06/26 00:14:04;;;;;;;;;;;;;;;;;;1044222;28;3106;-51
2022/06/26 00:14:34;;;;;;;;;;;;;;;;;;1043806;28;3723;-49
2022/06/26 00:15:05;;;;;;;;;;;;;;;;;;1047672;28;3284;-49
2022/06/26 00:15:35;;;;;;;;;;;;;;;;;;1049169;28;3777;-49
2022/06/26 00:16:05;;;;;;;;;;;;;;;;;;1048482;28;3762;-48
2022/06/26 00:16:35;;;;;;;;;;;;;;;;;;1048554;28;3813;-52
2022/06/26 00:17:06;;;;;;;;;;;;;;;;;;1047563;28;2737;-49
2022/06/26 00:17:36;;;;;;;;;;;;;;;;;;1048208;28;2152;-48
2022/06/26 00:18:07;;;;;;;;;;;;;;;;;;1044163;28;2833;-49
2022/06/26 00:18:37;;;;;;;;;;;;;;;;;;1049557;28;1805;-51
2022/06/26 00:19:07;;;;;;;;;;;;;;;;;;1048275;28;3493;-49
2022/06/26 00:19:38;;;;;;;;;;;;;;;;;;1045425;28;3831;-47
2022/06/26 00:20:08;;;;;;;;;;;;;;;;;;1048461;28;3320;-51
2022/06/26 00:20:38;;;;;;;;;;;;;;;;;;1050334;28;2281;-52
2022/06/26 00:21:09;;;;;;;;;;;;;;;;;;1048646;28;3763;-49
2022/06/26 00:21:40;;;;;;;;;;;;;;;;;;1049187;28;3426;-48
2022/06/26 00:22:10;;;;;;;;;;;;;;;;;;1048316;28;2003;-50
2022/06/26 00:22:41;;;;;;;;;;;;;;;;;;1050181;28;1850;-51
2022/06/26 00:23:11;;;;;;;;;;;;;;;;;;1048837;28;1877;-52
2022/06/26 00:23:41;;;;;;;;;;;;;;;;;;1049808;28;2412;-50
2022/06/26 00:24:12;;;;;;;;;;;;;;;;;;1047472;28;3025;-52
2022/06/26 00:24:43;;;;;;;;;;;;;;;;;;1048953;28;3113;-53
2022/06/26 00:25:13;;;;;;;;;;;;;;;;;;1048626;28;2101;-53
2022/06/26 00:25:43;;;;;;;;;;;;;;;;;;1050189;28;2971;-52
2022/06/26 00:26:13;;;;;;;;;;;;;;;;;;1047523;28;3789;-51
2022/06/26 00:26:44;;;;;;;;;;;;;;;;;;1048089;28;2907;-49
2022/06/26 00:27:14;;;;;;;;;;;;;;;;;;1044874;28;3099;-51
2022/06/26 00:27:46;;;;;;;;;;;;;;;;;;1047832;28;1676;-49
2022/06/26 00:28:16;;;;;;;;;;;;;;;;;;1046700;28;1869;-49
2022/06/26 00:28:46;;;;;;;;;;;;;;;;;;1049124;28;2660;-50
2022/06/26 00:29:17;;;;;;;;;;;;;;;;;;1047491;28;2763;-50
2022/06/26 00:29:47;;;;;;;;;;;;;;;;;;1050034;28;2680;-52
2022/06/26 00:30:17;;;;;;;;;;;;;;;;;;1047745;28;2966;-51
2022/06/26 00:30:47;;;;;;;;;;;;;;;;;;1048912;28;2914;-52
2022/06/26 00:31:18;;;;;;;;;;;;;;;;;;1048617;28;2428;-51
2022/06/26 00:31:48;;;;;;;;;;;;;;;;;;1050093;28;1698;-51
2022/06/26 00:32:19;;;;;;;;;;;;;;;;;;1042468;28;3724;-51
2022/06/26 00:32:49;;;;;;;;;;;;;;;;;;1045492;28;1686;-51
2022/06/26 00:33:19;;;;;;;;;;;;;;;;;;1039570;28;2790;-49
2022/06/26 00:33:49;;;;;;;;;;;;;;;;;;1041704;28;1827;-49
2022/06/26 00:34:20;;;;;;;;;;;;;;;;;;1044577;28;2793;-49
2022/06/26 00:34:50;;;;;;;;;;;;;;;;;;1041964;28;3316;-50
2022/06/26 00:35:21;;;;;;;;;;;;;;;;;;1047089;28;3840;-51
2022/06/26 00:35:51;;;;;;;;;;;;;;;;;;1049711;28;2926;-48
2022/06/26 00:36:29;;;;;;;;;;;;;;;;;;1046584;28;2951;-51
2022/06/26 00:36:59;;;;;;;;;;;;;;;;;;1049959;28;1720;-52
2022/06/26 00:37:29;;;;;;;;;;;;;;;;;;1049850;28;1683;-48
2022/06/26 00:38:00;;;;;;;;;;;;;;;;;;1049133;28;3333;-49
2022/06/26 00:38:30;;;;;;;;;;;;;;;;;;1048825;28;2763;-48
2022/06/26 00:39:00;;;;;;;;;;;;;;;;;;1048753;28;2951;-48
2022/06/26 00:39:30;;;;;;;;;;;;;;;;;;1049834;28;2543;-49
2022/06/26 00:40:01;;;;;;;;;;;;;;;;;;1049535;28;3405;-49
2022/06/26 00:40:31;;;;;;;;;;;;;;;;;;1049133;28;2750;-48
2022/06/26 00:41:01;;;;;;;;;;;;;;;;;;1050491;28;1784;-50
2022/06/26 00:41:32;;;;;;;;;;;;;;;;;;1049136;28;1892;-48
2022/06/26 00:42:02;;;;;;;;;;;;;;;;;;1049986;28;1771;-50
2022/06/26 00:42:33;;;;;;;;;;;;;;;;;;1049199;28;1875;-48
2022/06/26 00:43:03;;;;;;;;;;;;;;;;;;1047494;28;2571;-52
2022/06/26 00:43:33;;;;;;;;;;;;;;;;;;1048189;28;2056;-48
2022/06/26 00:44:11;;;;;;;;;;;;;;;;;;1046334;28;1102;-49
2022/06/26 00:44:42;;;;;;;;;;;;;;;;;;1044660;28;3779;-48
2022/06/26 00:45:19;;;;;;;;;;;;;;;;;;1044086;28;2801;-50
2022/06/26 00:45:49;;;;;;;;;;;;;;;;;;1044916;28;3266;-49
2022/06/26 00:46:20;;;;;;;;;;;;;;;;;;1049834;28;2666;-52
2022/06/26 00:46:51;;;;;;;;;;;;;;;;;;1044348;28;3205;-48
2022/06/26 00:47:31;;;;;;;;;;;;;;;;;;1050024;28;1659;-50
2022/06/26 00:48:01;;;;;;;;;;;;;;;;;;1047462;28;3821;-52
2022/06/26 00:48:32;;;;;;;;;;;;;;;;;;1049141;28;2673;-51
2022/06/26 00:49:02;;;;;;;;;;;;;;;;;;1047871;28;2270;-54
2022/06/26 00:49:32;;;;;;;;;;;;;;;;;;1047255;28;3561;-49
2022/06/26 00:50:05;;;;;;;;;;;;;;;;;;1048215;28;3998;-50
2022/06/26 00:50:35;;;;;;;;;;;;;;;;;;1049057;28;2514;-50
2022/06/26 00:51:06;;;;;;;;;;;;;;;;;;1042918;28;3758;-48
2022/06/26 00:51:39;;;;;;;;;;;;;;;;;;1044607;28;3173;-50
2022/06/26 00:52:09;;;;;;;;;;;;;;;;;;1043565;28;2735;-53
2022/06/26 00:52:40;;;;;;;;;;;;;;;;;;1050176;28;1660;-51
2022/06/26 00:53:10;;;;;;;;;;;;;;;;;;1047874;28;2883;-53
2022/06/26 00:53:41;;;;;;;;;;;;;;;;;;1050150;28;1587;-48
2022/06/26 00:54:11;;;;;;;;;;;;;;;;;;1046038;28;3365;-52
2022/06/26 00:54:42;;;;;;;;;;;;;;;;;;1049653;28;1624;-52
2022/06/26 00:55:12;;;;;;;;;;;;;;;;;;1048413;28;2954;-49
2022/06/26 00:55:42;;;;;;;;;;;;;;;;;;1048367;28;3501;-49
2022/06/26 00:56:13;;;;;;;;;;;;;;;;;;1048077;28;2973;-52
2022/06/26 00:56:43;;;;;;;;;;;;;;;;;;1050328;28;2997;-51
2022/06/26 00:57:13;;;;;;;;;;;;;;;;;;1048782;28;2026;-47
2022/06/26 00:57:44;;;;;;;;;;;;;;;;;;1050095;28;2934;-50
2022/06/26 00:58:15;;;;;;;;;;;;;;;;;;1048188;28;2627;-50
2022/06/26 00:58:45;;;;;;;;;;;;;;;;;;1049626;28;3041;-52
2022/06/26 00:59:16;;;;;;;;;;;;;;;;;;1048430;28;2275;-49
2022/06/26 00:59:46;;;;;;;;;;;;;;;;;;1048934;28;3778;-49
2022/06/26 01:00:20;;;;;;;;;;;;;;;;;;1048065;28;3805;-51
2022/06/26 01:00:50;;;;;;;;;;;;;;;;;;1049407;28;2528;-51
2022/06/26 01:01:20;;;;;;;;;;;;;;;;;;1048286;28;3257;-49
2022/06/26 01:01:51;;;;;;;;;;;;;;;;;;1047991;28;3352;-51
2022/06/26 01:02:21;;;;;;;;;;;;;;;;;;1049298;28;2690;-49
2022/06/26 01:02:51;;;;;;;;;;;;;;;;;;1048753;28;3193;-50
2022/06/26 01:03:21;;;;;;;;;;;;;;;;;;1049980;28;2404;-50
2022/06/26 01:03:52;;;;;;;;;;;;;;;;;;1049039;28;3610;-48
2022/06/26 01:04:22;;;;;;;;;;;;;;;;;;1046826;28;3852;-50
2022/06/26 01:04:53;;;;;;;;;;;;;;;;;;1048489;28;4105;-49
2022/06/26 01:05:23;;;;;;;;;;;;;;;;;;1049192;28;2784;-50
2022/06/26 01:05:54;;;;;;;;;;;;;;;;;;1050154;28;3039;-48
2022/06/26 01:06:24;;;;;;;;;;;;;;;;;;1049806;28;2046;-50
2022/06/26 01:06:54;;;;;;;;;;;;;;;;;;1050368;28;2423;-51
2022/06/26 01:07:25;;;;;;;;;;;;;;;;;;1049989;28;2545;-50
2022/06/26 01:07:55;;;;;;;;;;;;;;;;;;1048209;28;3251;-48
2022/06/26 01:08:26;;;;;;;;;;;;;;;;;;1044351;28;2845;-48
2022/06/26 01:08:56;;;;;;;;;;;;;;;;;;1044417;28;3664;-52
2022/06/26 01:09:27;;;;;;;;;;;;;;;;;;1040599;28;2472;-50
2022/06/26 01:09:57;;;;;;;;;;;;;;;;;;1041495;28;3694;-49
2022/06/26 01:10:27;;;;;;;;;;;;;;;;;;1044557;28;3815;-51
2022/06/26 01:11:17;;;;;;;;;;;;;;;;;;1043087;28;3712;-49
2022/06/26 01:11:47;;;;;;;;;;;;;;;;;;1047048;28;1676;-51
2022/06/26 01:12:18;;;;;;;;;;;;;;;;;;1040735;28;2811;-49
2022/06/26 01:12:48;;;;;;;;;;;;;;;;;;1045369;28;1588;-50
2022/06/26 01:13:18;;;;;;;;;;;;;;;;;;1045151;28;2246;-48
2022/06/26 01:13:52;;;;;;;;;;;;;;;;;;1045098;28;1692;-49
2022/06/26 01:14:23;;;;;;;;;;;;;;;;;;1046890;28;2720;-50
2022/06/26 01:14:54;;;;;;;;;;;;;;;;;;1048307;28;1364;-52
2022/06/26 01:15:24;;;;;;;;;;;;;;;;;;1043903;28;3248;-49
2022/06/26 01:15:54;;;;;;;;;;;;;;;;;;1047897;28;2787;-51
2022/06/26 01:16:25;;;;;;;;;;;;;;;;;;1045174;28;3398;-50
2022/06/26 01:16:55;;;;;;;;;;;;;;;;;;1045877;28;2511;-52
2022/06/26 01:17:26;;;;;;;;;;;;;;;;;;1047690;28;1893;-53
2022/06/26 01:17:56;;;;;;;;;;;;;;;;;;1048716;28;2472;-50
2022/06/26 01:18:27;;;;;;;;;;;;;;;;;;1045792;28;2956;-47
2022/06/26 01:18:58;;;;;;;;;;;;;;;;;;1048793;28;1676;-51
2022/06/26 01:19:29;;;;;;;;;;;;;;;;;;1045617;28;3329;-49
2022/06/26 01:19:59;;;;;;;;;;;;;;;;;;1047744;28;3929;-51
2022/06/26 01:20:30;;;;;;;;;;;;;;;;;;1042341;28;2829;-49
2022/06/26 01:21:00;;;;;;;;;;;;;;;;;;1043290;28;2321;-50
2022/06/26 01:21:32;;;;;;;;;;;;;;;;;;1039784;28;3003;-50
2022/06/26 01:22:02;;;;;;;;;;;;;;;;;;1044113;28;3427;-51
2022/06/26 01:22:32;;;;;;;;;;;;;;;;;;1046696;28;3741;-49
2022/06/26 01:23:04;;;;;;;;;;;;;;;;;;1042926;28;2649;-50
2022/06/26 01:23:34;;;;;;;;;;;;;;;;;;1047793;28;1644;-48
2022/06/26 01:24:05;;;;;;;;;;;;;;;;;;1045942;28;3675;-50
2022/06/26 01:24:35;;;;;;;;;;;;;;;;;;1046202;28;3736;-47
2022/06/26 01:25:05;;;;;;;;;;;;;;;;;;1046192;28;3673;-50
2022/06/26 01:25:54;;;;;;;;;;;;;;;;;;1047884;28;1764;-53
2022/06/26 01:26:25;;;;;;;;;;;;;;;;;;1046466;28;2756;-51
2022/06/26 01:26:55;;;;;;;;;;;;;;;;;;1046524;28;1971;-53
2022/06/26 01:27:26;;;;;;;;;;;;;;;;;;1046529;28;2645;-49
2022/06/26 01:27:56;;;;;;;;;;;;;;;;;;1044702;28;3642;-52
2022/06/26 01:28:26;;;;;;;;;;;;;;;;;;1046571;28;2453;-50
2022/06/26 01:28:56;;;;;;;;;;;;;;;;;;1048288;28;2088;-48
2022/06/26 01:29:27;;;;;;;;;;;;;;;;;;1045628;28;2567;-50
2022/06/26 01:29:57;;;;;;;;;;;;;;;;;;1044641;28;3519;-52
2022/06/26 01:30:28;;;;;;;;;;;;;;;;;;1046255;28;2645;-52
2022/06/26 01:30:58;;;;;;;;;;;;;;;;;;1047080;28;3694;-52
2022/06/26 01:31:28;;;;;;;;;;;;;;;;;;1041221;28;3083;-51
2022/06/26 01:31:59;;;;;;;;;;;;;;;;;;1047571;28;3377;-50
2022/06/26 01:32:30;;;;;;;;;;;;;;;;;;1044780;28;2937;-48
2022/06/26 01:33:00;;;;;;;;;;;;;;;;;;1044482;28;3758;-52
2022/06/26 01:33:31;;;;;;;;;;;;;;;;;;1047986;28;2076;-50
2022/06/26 01:34:05;;;;;;;;;;;;;;;;;;1048521;28;1747;-53
2022/06/26 01:34:36;;;;;;;;;;;;;;;;;;1046471;28;2939;-49
2022/06/26 01:35:06;;;;;;;;;;;;;;;;;;1043423;28;3742;-51
2022/06/26 01:35:37;;;;;;;;;;;;;;;;;;1041842;28;2831;-48
2022/06/26 01:36:07;;;;;;;;;;;;;;;;;;1037560;28;3410;-51
2022/06/26 01:36:44;;;;;;;;;;;;;;;;;;1040653;28;2699;-49
2022/06/26 01:37:14;;;;;;;;;;;;;;;;;;1041494;28;1593;-51
2022/06/26 01:37:44;;;;;;;;;;;;;;;;;;1045522;28;2232;-50
2022/06/26 01:38:16;;;;;;;;;;;;;;;;;;1041673;28;2811;-50
2022/06/26 01:38:47;;;;;;;;;;;;;;;;;;1042574;28;1650;-49
2022/06/26 01:39:19;;;;;;;;;;;;;;;;;;1046860;28;2536;-51
2022/06/26 01:39:49;;;;;;;;;;;;;;;;;;1037637;28;3166;-51
2022/06/26 01:40:20;;;;;;;;;;;;;;;;;;1042782;28;3210;-51
2022/06/26 01:40:51;;;;;;;;;;;;;;;;;;1043082;28;1598;-50
2022/06/26 01:41:21;;;;;;;;;;;;;;;;;;1043547;28;2931;-48
2022/06/26 01:41:52;;;;;;;;;;;;;;;;;;1047764;28;3667;-52
2022/06/26 01:42:22;;;;;;;;;;;;;;;;;;1047820;28;2707;-51
2022/06/26 01:42:52;;;;;;;;;;;;;;;;;;1047535;28;1715;-51
2022/06/26 01:43:24;;;;;;;;;;;;;;;;;;1048940;28;1521;-48
2022/06/26 01:43:55;;;;;;;;;;;;;;;;;;1048343;28;1819;-48
2022/06/26 01:44:25;;;;;;;;;;;;;;;;;;1046755;28;2439;-50
2022/06/26 01:44:55;;;;;;;;;;;;;;;;;;1043801;28;3777;-51
2022/06/26 01:45:25;;;;;;;;;;;;;;;;;;1048018;28;1737;-51
2022/06/26 01:45:56;;;;;;;;;;;;;;;;;;1044102;28;2805;-50
2022/06/26 01:46:26;;;;;;;;;;;;;;;;;;1045303;28;3113;-52
2022/06/26 01:46:56;;;;;;;;;;;;;;;;;;1047761;28;3109;-52
2022/06/26 01:47:27;;;;;;;;;;;;;;;;;;1049072;28;1609;-50
2022/06/26 01:47:57;;;;;;;;;;;;;;;;;;1044178;28;2776;-50
2022/06/26 01:48:28;;;;;;;;;;;;;;;;;;1047668;28;1756;-52
2022/06/26 01:48:58;;;;;;;;;;;;;;;;;;1047325;28;2031;-50
2022/06/26 01:49:29;;;;;;;;;;;;;;;;;;1046683;28;3064;-48
2022/06/26 01:49:59;;;;;;;;;;;;;;;;;;1044737;28;3035;-51
2022/06/26 01:50:29;;;;;;;;;;;;;;;;;;1045953;28;4026;-48
2022/06/26 01:51:00;;;;;;;;;;;;;;;;;;1046551;28;3691;-48
2022/06/26 01:51:30;;;;;;;;;;;;;;;;;;1045885;28;3798;-48
2022/06/26 01:52:01;;;;;;;;;;;;;;;;;;1045303;28;2932;-49
2022/06/26 01:52:31;;;;;;;;;;;;;;;;;;1046699;28;3324;-50
2022/06/26 01:53:02;;;;;;;;;;;;;;;;;;1044777;28;2965;-49
2022/06/26 01:53:32;;;;;;;;;;;;;;;;;;1047584;28;3740;-48
2022/06/26 01:54:02;;;;;;;;;;;;;;;;;;1045571;28;3987;-49
2022/06/26 01:54:33;;;;;;;;;;;;;;;;;;1047441;28;1866;-47
2022/06/26 01:55:03;;;;;;;;;;;;;;;;;;1046412;28;2330;-47
2022/06/26 01:55:33;;;;;;;;;;;;;;;;;;1047178;28;2877;-49
2022/06/26 01:56:04;;;;;;;;;;;;;;;;;;1046649;28;2774;-49
2022/06/26 01:56:34;;;;;;;;;;;;;;;;;;1046816;28;3844;-50
2022/06/26 01:57:04;;;;;;;;;;;;;;;;;;1046903;28;3797;-48
2022/06/26 01:57:35;;;;;;;;;;;;;;;;;;1047078;28;2637;-54
2022/06/26 01:58:05;;;;;;;;;;;;;;;;;;1047304;28;2697;-51
2022/06/26 01:58:36;;;;;;;;;;;;;;;;;;1048521;28;1882;-48
2022/06/26 01:59:06;;;;;;;;;;;;;;;;;;1046824;28;2692;-50
2022/06/26 01:59:36;;;;;;;;;;;;;;;;;;1047089;28;3040;-53
2022/06/26 02:00:07;;;;;;;;;;;;;;;;;;1045468;28;3304;-50
2022/06/26 02:00:38;;;;;;;;;;;;;;;;;;1047727;28;2381;-49
2022/06/26 02:01:08;;;;;;;;;;;;;;;;;;1047152;28;1940;-49
2022/06/26 02:01:39;;;;;;;;;;;;;;;;;;1044246;28;3287;-48
2022/06/26 02:02:09;;;;;;;;;;;;;;;;;;1041659;28;4060;-52
2022/06/26 02:02:39;;;;;;;;;;;;;;;;;;1048469;28;1657;-52
2022/06/26 02:03:10;;;;;;;;;;;;;;;;;;1042720;28;3505;-53
2022/06/26 02:03:40;;;;;;;;;;;;;;;;;;1046021;28;2888;-48
2022/06/26 02:04:16;;;;;;;;;;;;;;;;;;1040464;28;3536;-51
2022/06/26 02:04:46;;;;;;;;;;;;;;;;;;1042290;28;2187;-52
2022/06/26 02:05:16;;;;;;;;;;;;;;;;;;1042627;28;3563;-53
2022/06/26 02:05:46;;;;;;;;;;;;;;;;;;1042100;28;3289;-50
2022/06/26 02:06:17;;;;;;;;;;;;;;;;;;1048313;28;1777;-51
2022/06/26 02:06:47;;;;;;;;;;;;;;;;;;1046271;28;2381;-50
2022/06/26 02:07:17;;;;;;;;;;;;;;;;;;1047826;28;2263;-52
2022/06/26 02:07:48;;;;;;;;;;;;;;;;;;1048363;28;2760;-50
2022/06/26 02:08:18;;;;;;;;;;;;;;;;;;1047431;28;3573;-52
2022/06/26 02:08:49;;;;;;;;;;;;;;;;;;1048344;28;1655;-48
2022/06/26 02:13:37;;;;;;;;;;;;;;;;;;1054097;28;1618;-50
2022/06/26 02:14:09;;;;;;;;;;;;;;;;;;1054963;28;3040;-51
2022/06/26 02:14:39;;;;;;;;;;;;;;;;;;1053332;28;3556;-53
2022/06/26 02:15:09;;;;;;;;;;;;;;;;;;1053603;28;3795;-51
2022/06/26 02:15:39;;;;;;;;;;;;;;;;;;1053029;28;2920;-51
2022/06/26 02:16:15;;;;;;;;;;;;;;;;;;1050376;28;1655;-48
2022/06/26 02:16:45;;;;;;;;;;;;;;;;;;1047522;28;2637;-50
2022/06/26 02:17:15;;;;;;;;;;;;;;;;;;1047734;28;3445;-52
2022/06/26 02:17:46;;;;;;;;;;;;;;;;;;1048775;28;3252;-50
2022/06/26 02:18:16;;;;;;;;;;;;;;;;;;1052158;28;2531;-49
2022/06/26 02:18:47;;;;;;;;;;;;;;;;;;1051931;28;3723;-50
2022/06/26 02:19:17;;;;;;;;;;;;;;;;;;1053068;28;1677;-50
2022/06/26 02:19:48;;;;;;;;;;;;;;;;;;1054017;28;1662;-53
2022/06/26 02:20:18;;;;;;;;;;;;;;;;;;1055170;28;2780;-49
2022/06/26 02:20:49;;;;;;;;;;;;;;;;;;1047550;28;3668;-48
2022/06/26 02:21:20;;;;;;;;;;;;;;;;;;1046242;28;1718;-52
2022/06/26 02:21:50;;;;;;;;;;;;;;;;;;1040703;28;2739;-49
2022/06/26 02:22:21;;;;;;;;;;;;;;;;;;1035857;28;3812;-54
2022/06/26 02:22:51;;;;;;;;;;;;;;;;;;1041521;28;1871;-50
2022/06/26 02:23:22;;;;;;;;;;;;;;;;;;1045438;28;2034;-49
2022/06/26 02:23:52;;;;;;;;;;;;;;;;;;1049744;28;1821;-51
2022/06/26 02:24:22;;;;;;;;;;;;;;;;;;1053722;28;2867;-49
2022/06/26 02:24:53;;;;;;;;;;;;;;;;;;1054704;28;2212;-49
2022/06/26 02:25:23;;;;;;;;;;;;;;;;;;1053413;28;2914;-50
2022/06/26 02:25:54;;;;;;;;;;;;;;;;;;1053996;28;2800;-49
2022/06/26 02:26:24;;;;;;;;;;;;;;;;;;1053081;28;2835;-50
2022/06/26 02:26:54;;;;;;;;;;;;;;;;;;1053794;28;1921;-50
2022/06/26 02:27:25;;;;;;;;;;;;;;;;;;1052687;28;2600;-50
2022/06/26 02:27:55;;;;;;;;;;;;;;;;;;1053467;28;2658;-49
2022/06/26 02:28:25;;;;;;;;;;;;;;;;;;1053879;28;2537;-47
2022/06/26 02:28:55;;;;;;;;;;;;;;;;;;1054490;28;2233;-52
2022/06/26 02:29:26;;;;;;;;;;;;;;;;;;1054351;28;2616;-50
2022/06/26 02:29:56;;;;;;;;;;;;;;;;;;1053320;28;3003;-53
2022/06/26 02:30:26;;;;;;;;;;;;;;;;;;1048694;28;3231;-50
2022/06/26 02:30:57;;;;;;;;;;;;;;;;;;1048224;28;2274;-48
2022/06/26 02:31:27;;;;;;;;;;;;;;;;;;1045480;28;2533;-48
2022/06/26 02:31:58;;;;;;;;;;;;;;;;;;1044858;28;2718;-48
2022/06/26 02:32:31;;;;;;;;;;;;;;;;;;1047229;28;2928;-55
2022/06/26 02:33:01;;;;;;;;;;;;;;;;;;1048223;28;3120;-50
2022/06/26 02:33:35;;;;;;;;;;;;;;;;;;1054402;28;3434;-49
2022/06/26 02:34:05;;;;;;;;;;;;;;;;;;1053191;28;3189;-49
2022/06/26 02:34:35;;;;;;;;;;;;;;;;;;1054799;28;3208;-51
2022/06/26 02:35:06;;;;;;;;;;;;;;;;;;1048760;28;1920;-52
2022/06/26 02:35:36;;;;;;;;;;;;;;;;;;1046726;28;3750;-50
2022/06/26 02:36:07;;;;;;;;;;;;;;;;;;1049313;28;2690;-50
2022/06/26 02:36:44;;;;;;;;;;;;;;;;;;1050838;28;2946;-48
2022/06/26 02:37:14;;;;;;;;;;;;;;;;;;1051477;28;2883;-49
2022/06/26 02:37:45;;;;;;;;;;;;;;;;;;1053652;28;3935;-52
2022/06/26 02:38:15;;;;;;;;;;;;;;;;;;1053694;28;1599;-50
2022/06/26 02:38:46;;;;;;;;;;;;;;;;;;1054711;28;3139;-50
2022/06/26 02:39:16;;;;;;;;;;;;;;;;;;1052787;28;3154;-51
2022/06/26 02:39:46;;;;;;;;;;;;;;;;;;1054233;28;2033;-50
2022/06/26 02:40:19;;;;;;;;;;;;;;;;;;1047635;28;4104;-52
2022/06/26 02:40:49;;;;;;;;;;;;;;;;;;1041949;28;1374;-50
2022/06/26 02:41:19;;;;;;;;;;;;;;;;;;1040013;28;2693;-48
2022/06/26 02:41:50;;;;;;;;;;;;;;;;;;1037612;28;2908;-50
2022/06/26 02:42:20;;;;;;;;;;;;;;;;;;1039510;28;3203;-49
2022/06/26 02:42:50;;;;;;;;;;;;;;;;;;1045713;28;2076;-52
2022/06/26 02:43:24;;;;;;;;;;;;;;;;;;1044651;28;3216;-50
2022/06/26 02:43:54;;;;;;;;;;;;;;;;;;1050317;28;1310;-50
2022/06/26 02:44:25;;;;;;;;;;;;;;;;;;1048867;28;3687;-50
2022/06/26 02:44:55;;;;;;;;;;;;;;;;;;1054613;28;3005;-48
2022/06/26 02:45:25;;;;;;;;;;;;;;;;;;1053293;28;3219;-51
2022/06/26 02:45:55;;;;;;;;;;;;;;;;;;1053705;28;2773;-51
2022/06/26 02:46:26;;;;;;;;;;;;;;;;;;1052875;28;2757;-50
2022/06/26 02:46:56;;;;;;;;;;;;;;;;;;1055086;28;3146;-49
2022/06/26 02:47:26;;;;;;;;;;;;;;;;;;1054088;28;1987;-50
2022/06/26 02:47:56;;;;;;;;;;;;;;;;;;1052938;28;2682;-50
2022/06/26 02:48:27;;;;;;;;;;;;;;;;;;1048983;28;2463;-49
2022/06/26 02:48:57;;;;;;;;;;;;;;;;;;1049927;28;2585;-50
2022/06/26 02:49:27;;;;;;;;;;;;;;;;;;1048356;28;2110;-47
2022/06/26 02:49:58;;;;;;;;;;;;;;;;;;1049338;28;2928;-52
2022/06/26 02:50:28;;;;;;;;;;;;;;;;;;1051639;28;2559;-48
2022/06/26 02:50:58;;;;;;;;;;;;;;;;;;1047193;28;4041;-50
2022/06/26 02:51:29;;;;;;;;;;;;;;;;;;1047710;28;4309;-48
2022/06/26 02:51:59;;;;;;;;;;;;;;;;;;1048102;28;3180;-48
2022/06/26 02:52:29;;;;;;;;;;;;;;;;;;1043933;28;2936;-50
2022/06/26 02:53:00;;;;;;;;;;;;;;;;;;1045880;28;2950;-50
2022/06/26 02:53:30;;;;;;;;;;;;;;;;;;1044336;28;2399;-51
2022/06/26 02:54:00;;;;;;;;;;;;;;;;;;1044435;28;3040;-52
2022/06/26 02:54:30;;;;;;;;;;;;;;;;;;1047398;28;3803;-51
2022/06/26 02:55:02;;;;;;;;;;;;;;;;;;1048423;28;2972;-52
2022/06/26 02:55:32;;;;;;;;;;;;;;;;;;1047820;28;3402;-51
2022/06/26 02:56:03;;;;;;;;;;;;;;;;;;1049101;28;2539;-48
2022/06/26 02:56:34;;;;;;;;;;;;;;;;;;1047411;28;3064;-50
2022/06/26 02:57:04;;;;;;;;;;;;;;;;;;1049019;28;2614;-50
2022/06/26 02:57:35;;;;;;;;;;;;;;;;;;1048420;28;2873;-48
2022/06/26 02:58:05;;;;;;;;;;;;;;;;;;1055062;28;1688;-51
2022/06/26 02:58:36;;;;;;;;;;;;;;;;;;1052427;28;2918;-50
2022/06/26 02:59:13;;;;;;;;;;;;;;;;;;1052661;28;2064;-50
2022/06/26 02:59:43;;;;;;;;;;;;;;;;;;1053824;28;2064;-48
2022/06/26 03:00:14;;;;;;;;;;;;;;;;;;1053841;28;2028;-50
2022/06/26 03:00:44;;;;;;;;;;;;;;;;;;1053746;28;2147;-52
2022/06/26 03:01:15;;;;;;;;;;;;;;;;;;1052751;28;2456;-51
2022/06/26 03:01:45;;;;;;;;;;;;;;;;;;1048932;28;3365;-50
2022/06/26 03:02:15;;;;;;;;;;;;;;;;;;1048267;28;3125;-51
2022/06/26 03:02:46;;;;;;;;;;;;;;;;;;1049369;28;3719;-51
2022/06/26 03:03:16;;;;;;;;;;;;;;;;;;1048882;28;2730;-48
2022/06/26 03:03:46;;;;;;;;;;;;;;;;;;1053154;28;2378;-50
2022/06/26 03:04:16;;;;;;;;;;;;;;;;;;1054029;28;2494;-52
2022/06/26 03:04:47;;;;;;;;;;;;;;;;;;1052785;28;2026;-51
2022/06/26 03:05:17;;;;;;;;;;;;;;;;;;1053378;28;3042;-51
2022/06/26 03:05:47;;;;;;;;;;;;;;;;;;1052585;28;3846;-51
2022/06/26 03:06:18;;;;;;;;;;;;;;;;;;1048919;28;2934;-48
2022/06/26 03:06:48;;;;;;;;;;;;;;;;;;1047073;28;3719;-49
2022/06/26 03:07:18;;;;;;;;;;;;;;;;;;1049666;28;1913;-51
2022/06/26 03:07:49;;;;;;;;;;;;;;;;;;1049027;28;2745;-51
2022/06/26 03:08:19;;;;;;;;;;;;;;;;;;1050003;28;2813;-52
2022/06/26 03:08:49;;;;;;;;;;;;;;;;;;1048003;28;3809;-50
2022/06/26 03:09:19;;;;;;;;;;;;;;;;;;1049390;28;3860;-53
2022/06/26 03:09:50;;;;;;;;;;;;;;;;;;1049149;28;2932;-53
2022/06/26 03:10:20;;;;;;;;;;;;;;;;;;1053283;28;2869;-52
2022/06/26 03:10:57;;;;;;;;;;;;;;;;;;1050562;28;2024;-49
2022/06/26 03:11:34;;;;;;;;;;;;;;;;;;1047440;28;3258;-53
2022/06/26 03:12:11;;;;;;;;;;;;;;;;;;1048014;28;3312;-51
2022/06/26 03:12:42;;;;;;;;;;;;;;;;;;1046605;28;2787;-53
2022/06/26 03:13:12;;;;;;;;;;;;;;;;;;1045495;28;2717;-48
2022/06/26 03:13:43;;;;;;;;;;;;;;;;;;1046542;28;1643;-48
2022/06/26 03:14:13;;;;;;;;;;;;;;;;;;1045778;28;1761;-49
2022/06/26 03:14:43;;;;;;;;;;;;;;;;;;1046320;28;2712;-49
2022/06/26 03:15:14;;;;;;;;;;;;;;;;;;1048449;28;2327;-51
2022/06/26 03:15:44;;;;;;;;;;;;;;;;;;1050348;28;1709;-50
2022/06/26 03:16:14;;;;;;;;;;;;;;;;;;1050071;28;1693;-47
2022/06/26 03:16:45;;;;;;;;;;;;;;;;;;1049320;28;1784;-49
2022/06/26 03:17:15;;;;;;;;;;;;;;;;;;1045062;28;2822;-49
2022/06/26 03:17:46;;;;;;;;;;;;;;;;;;1049198;28;2892;-49
2022/06/26 03:18:16;;;;;;;;;;;;;;;;;;1047756;28;3101;-51
2022/06/26 03:18:46;;;;;;;;;;;;;;;;;;1049912;28;2860;-51
2022/06/26 03:19:17;;;;;;;;;;;;;;;;;;1047688;28;2577;-52
2022/06/26 03:19:47;;;;;;;;;;;;;;;;;;1048502;28;2519;-51
2022/06/26 03:20:19;;;;;;;;;;;;;;;;;;1044577;28;3081;-50
2022/06/26 03:20:49;;;;;;;;;;;;;;;;;;1043614;28;3589;-47
2022/06/26 03:21:19;;;;;;;;;;;;;;;;;;1040745;28;2589;-47
2022/06/26 03:21:49;;;;;;;;;;;;;;;;;;1036366;28;3844;-50
2022/06/26 03:22:20;;;;;;;;;;;;;;;;;;1044194;28;2751;-47
2022/06/26 03:22:50;;;;;;;;;;;;;;;;;;1041732;28;1685;-50
2022/06/26 03:23:20;;;;;;;;;;;;;;;;;;1044326;28;3175;-49
2022/06/26 03:24:03;;;;;;;;;;;;;;;;;;1045075;28;2152;-49
2022/06/26 03:24:33;;;;;;;;;;;;;;;;;;1044893;28;2877;-48
2022/06/26 03:25:04;;;;;;;;;;;;;;;;;;1044923;28;3122;-54
2022/06/26 03:25:35;;;;;;;;;;;;;;;;;;1047106;28;3047;-51
2022/06/26 03:26:05;;;;;;;;;;;;;;;;;;1043851;28;3649;-49
2022/06/26 03:26:36;;;;;;;;;;;;;;;;;;1048463;28;3149;-47
2022/06/26 03:27:06;;;;;;;;;;;;;;;;;;1048543;28;3394;-50
2022/06/26 03:27:37;;;;;;;;;;;;;;;;;;1043289;28;2989;-48
2022/06/26 03:28:07;;;;;;;;;;;;;;;;;;1043929;28;3749;-53
2022/06/26 03:28:37;;;;;;;;;;;;;;;;;;1043789;28;3274;-49
2022/06/26 03:29:14;;;;;;;;;;;;;;;;;;1044995;28;2763;-53
2022/06/26 03:29:44;;;;;;;;;;;;;;;;;;1044638;28;3244;-48
2022/06/26 03:30:14;;;;;;;;;;;;;;;;;;1045362;28;2842;-49
2022/06/26 03:30:45;;;;;;;;;;;;;;;;;;1045567;28;2736;-55
2022/06/26 03:31:16;;;;;;;;;;;;;;;;;;1044927;28;2887;-50
2022/06/26 03:31:46;;;;;;;;;;;;;;;;;;1048591;28;2251;-52
2022/06/26 03:32:16;;;;;;;;;;;;;;;;;;1047872;28;2972;-49
2022/06/26 03:32:46;;;;;;;;;;;;;;;;;;1049501;28;2126;-49
2022/06/26 03:33:17;;;;;;;;;;;;;;;;;;1048256;28;2978;-52
2022/06/26 03:33:47;;;;;;;;;;;;;;;;;;1045529;28;1687;-51
2022/06/26 03:34:17;;;;;;;;;;;;;;;;;;1045279;28;3061;-51
2022/06/26 03:34:48;;;;;;;;;;;;;;;;;;1044205;28;2730;-50
2022/06/26 03:35:18;;;;;;;;;;;;;;;;;;1045639;28;2942;-50
2022/06/26 03:35:48;;;;;;;;;;;;;;;;;;1044353;28;3004;-48
2022/06/26 03:36:18;;;;;;;;;;;;;;;;;;1045138;28;3289;-47
2022/06/26 03:36:49;;;;;;;;;;;;;;;;;;1046020;28;2058;-49
2022/06/26 03:37:19;;;;;;;;;;;;;;;;;;1044830;28;2566;-49
2022/06/26 03:37:49;;;;;;;;;;;;;;;;;;1042903;28;3896;-47
2022/06/26 03:38:19;;;;;;;;;;;;;;;;;;1043709;28;3857;-49
2022/06/26 03:38:50;;;;;;;;;;;;;;;;;;1042957;28;3487;-47